Time;durP1;ratioP1;P1;durP2;ratioP2;P2;SDS_P1;SDS_P2;PMS_P1;PMS_P2;Temp;Humidity;BMP_temperature;BMP_pressure;BME280_temperature;BME280_humidity;BME280_pressure;Samples;Min_cycle;Max_cycle;Signal;HPM_P1;HPM_P2
2022/11/04 00:02:05;;;;;;;0.33;0.10;;;;;;;9.33;100.00;97100.34;18570073;32;20057;-64
2022/11/04 00:12:26;;;;;;;0.10;0.10;;;;;;;9.29;100.00;97104.69;18556317;32;20424;-63
2022/11/04 00:43:10;;;;;;;0.77;0.10;;;;;;;9.00;100.00;97072.97;18569142;32;20108;-63
2022/11/04 00:53:12;;;;;;;0.40;0.10;;;;;;;8.95;100.00;97079.19;18567796;32;20088;-63
2022/11/04 01:03:15;;;;;;;0.40;0.20;;;;;;;8.85;100.00;97078.41;18567736;32;20229;-63
2022/11/04 01:13:17;;;;;;;0.10;0.00;;;;;;;8.76;100.00;97091.63;18553171;32;20049;-63
2022/11/04 01:23:20;;;;;;;0.70;0.17;;;;;;;8.65;100.00;97082.75;18566223;32;20410;-63
2022/11/04 01:33:23;;;;;;;2.03;0.30;;;;;;;8.56;100.00;97068.22;18565646;32;20056;-63
2022/11/04 01:44:17;;;;;;;1.17;0.33;;;;;;;8.46;100.00;97063.66;18544605;32;20067;-63
2022/11/04 01:54:20;;;;;;;0.50;0.30;;;;;;;8.36;100.00;97052.84;18233565;32;20058;-63
2022/11/04 02:04:25;;;;;;;0.67;0.27;;;;;;;8.27;100.00;97036.41;18233460;32;20109;-63
2022/11/04 02:14:28;;;;;;;0.53;0.20;;;;;;;8.17;100.00;97037.25;18233018;32;20078;-63
2022/11/04 02:24:55;;;;;;;0.40;0.20;;;;;;;8.09;100.00;97021.63;18354409;32;20433;-63
2022/11/04 02:35:03;;;;;;;0.73;0.30;;;;;;;7.95;100.00;97014.06;18548079;32;20056;-64
2022/11/04 02:45:16;;;;;;;1.53;0.20;;;;;;;7.87;100.00;97000.34;18561388;32;20376;-63
2022/11/04 02:55:24;;;;;;;1.27;0.20;;;;;;;7.80;100.00;97006.81;18560484;32;20405;-63
2022/11/04 03:05:35;;;;;;;2.03;0.30;;;;;;;7.73;100.00;96991.97;18561085;32;20386;-63
2022/11/04 03:15:41;;;;;;;0.50;0.30;;;;;;;7.62;100.00;96966.97;18560770;32;20056;-63
2022/11/04 03:25:47;;;;;;;1.87;0.30;;;;;;;7.51;100.00;96954.56;18560219;32;20440;-63
2022/11/04 03:35:49;;;;;;;1.70;0.37;;;;;;;7.38;100.00;96918.25;18553107;32;20493;-63
2022/11/04 03:45:53;;;;;;;0.70;0.20;;;;;;;7.23;100.00;96921.75;18559425;32;20081;-63
2022/11/04 03:55:58;;;;;;;3.77;0.30;;;;;;;7.10;100.00;96926.56;18544601;32;20123;-63
2022/11/04 04:06:11;;;;;;;0.87;0.20;;;;;;;6.98;100.00;96934.06;18426382;32;20066;-63
2022/11/04 04:16:42;;;;;;;0.47;0.17;;;;;;;6.90;100.00;96948.00;18431656;32;20073;-63
2022/11/04 04:37:18;;;;;;;0.20;0.10;;;;;;;6.74;100.00;96942.59;18464470;32;20052;-63
2022/11/04 04:47:23;;;;;;;0.87;0.20;;;;;;;6.63;100.00;96946.28;18365582;32;20544;-63
2022/11/04 04:57:26;;;;;;;2.33;0.20;;;;;;;6.53;100.00;96916.72;18364872;32;20454;-63
2022/11/04 05:07:29;;;;;;;0.30;0.13;;;;;;;6.48;100.00;96903.25;18364204;32;20065;-63
2022/11/04 05:17:31;;;;;;;0.10;0.10;;;;;;;6.42;100.00;96895.16;18498861;32;20140;-63
2022/11/04 05:27:34;;;;;;;0.87;0.10;;;;;;;6.34;100.00;96884.94;18559131;32;20064;-63
2022/11/04 05:37:36;;;;;;;0.83;0.20;;;;;;;6.22;100.00;96866.38;18551438;32;20056;-63
2022/11/04 05:47:39;;;;;;;0.87;0.20;;;;;;;6.15;100.00;96859.63;18537703;32;20135;-63
2022/11/04 05:57:42;;;;;;;0.50;0.10;;;;;;;6.07;100.00;96856.38;18564087;31;20064;-63
2022/11/04 06:07:44;;;;;;;0.23;0.20;;;;;;;5.97;100.00;96816.00;18563627;32;20413;-63
2022/11/04 06:17:47;;;;;;;0.93;0.20;;;;;;;5.91;100.00;96811.72;18561653;32;20068;-63
2022/11/04 06:27:50;;;;;;;0.70;0.20;;;;;;;5.85;100.00;96828.84;18556619;32;20107;-63
2022/11/04 06:37:54;;;;;;;0.47;0.30;;;;;;;5.82;100.00;96826.69;18561775;32;20397;-63
2022/11/04 06:47:57;;;;;;;0.60;0.20;;;;;;;5.80;100.00;96839.53;18547377;32;20044;-63
2022/11/04 06:58:00;;;;;;;0.87;0.20;;;;;;;5.84;100.00;96836.09;18560779;32;20148;-63
2022/11/04 07:08:06;;;;;;;0.40;0.23;;;;;;;5.93;100.00;96839.06;18560383;32;20092;-63
2022/11/04 07:18:10;;;;;;;0.47;0.20;;;;;;;6.06;100.00;96838.63;18545758;32;20094;-63
2022/11/04 07:28:14;;;;;;;1.03;0.20;;;;;;;6.33;100.00;96853.78;18559828;32;20159;-63
2022/11/04 07:38:18;;;;;;;0.47;0.20;;;;;;;6.73;100.00;96852.31;18425244;32;20072;-63
2022/11/04 07:48:23;;;;;;;0.40;0.20;;;;;;;7.13;100.00;96852.63;18433199;32;20130;-63
2022/11/04 07:58:28;;;;;;;1.27;0.50;;;;;;;7.45;100.00;96830.87;18432284;32;20124;-63
2022/11/04 08:08:33;;;;;;;1.73;0.50;;;;;;;7.78;100.00;96819.75;18491000;32;20083;-63
2022/11/04 08:18:39;;;;;;;1.57;0.70;;;;;;;8.16;100.00;96806.72;18505539;32;20053;-63
2022/11/04 08:28:44;;;;;;;2.93;0.80;;;;;;;8.57;100.00;96819.25;18504736;32;20113;-63
2022/11/04 08:39:04;;;;;;;2.33;1.10;;;;;;;8.93;100.00;96805.53;18504188;32;20102;-63
2022/11/04 08:49:48;;;;;;;1.60;1.30;;;;;;;9.13;100.00;96797.28;18502628;32;20061;-63
2022/11/04 09:00:01;;;;;;;2.00;1.27;;;;;;;9.39;100.00;96799.78;18552608;31;20045;-63
2022/11/04 09:10:06;;;;;;;1.80;1.40;;;;;;;9.77;100.00;96805.34;18552941;32;20065;-63
2022/11/04 09:20:11;;;;;;;3.00;1.60;;;;;;;10.17;100.00;96808.69;18566661;32;20057;-63
2022/11/04 09:30:17;;;;;;;3.17;1.55;;;;;;;10.49;100.00;96799.13;18552234;32;20065;-63
2022/11/04 09:40:35;;;;;;;2.20;2.00;;;;;;;10.55;100.00;96799.87;18565354;32;20076;-63
2022/11/04 09:50:45;;;;;;;4.28;2.00;;;;;;;10.70;100.00;96798.84;18564672;32;20053;-63
2022/11/04 10:01:06;;;;;;;3.85;1.65;;;;;;;10.88;100.00;96808.06;18548539;32;20116;-62
2022/11/04 10:11:21;;;;;;;2.87;1.70;;;;;;;10.85;100.00;96817.56;18563205;32;20056;-63
2022/11/04 10:21:48;;;;;;;4.57;1.87;;;;;;;11.14;100.00;96805.78;18562911;32;20338;-63
2022/11/04 10:31:57;;;;;;;4.90;2.05;;;;;;;11.45;100.00;96816.09;18562033;32;20075;-63
2022/11/04 10:42:05;;;;;;;2.10;1.55;;;;;;;11.39;100.00;96806.47;18547198;32;20097;-63
2022/11/04 10:52:15;;;;;;;6.28;2.95;;;;;;;11.43;100.00;96788.53;18543732;32;20145;-63
2022/11/04 11:02:36;;;;;;;4.03;2.58;;;;;;;11.56;100.00;96784.22;18545920;32;20123;-63
2022/11/04 11:12:49;;;;;;;3.87;2.22;;;;;;;11.50;100.00;96788.94;18546133;32;20056;-63
2022/11/04 11:22:55;;;;;;;3.62;2.00;;;;;;;11.39;100.00;96792.09;18547937;32;20518;-63
2022/11/04 11:33:17;;;;;;;3.60;1.70;;;;;;;11.28;100.00;96797.72;18560092;32;20079;-63
2022/11/04 11:43:30;;;;;;;1.95;0.95;;;;;;;11.41;100.00;96790.72;18421201;32;20136;-63
2022/11/04 11:53:38;;;;;;;2.47;1.00;;;;;;;11.51;100.00;96779.72;18420220;32;20069;-63
2022/11/04 12:03:47;;;;;;;2.70;1.10;;;;;;;11.67;100.00;96780.22;18420202;32;20102;-63
2022/11/04 12:14:39;;;;;;;;;;;;;;;;;;;;;
2022/11/04 12:25:19;;;;;;;1.98;0.80;;;;;;;11.78;100.00;96778.13;18497429;32;20062;-64
2022/11/04 12:35:48;;;;;;;1.85;0.80;;;;;;;11.76;100.00;96784.97;18504432;32;20053;-63
2022/11/04 12:46:08;;;;;;;2.67;1.05;;;;;;;11.83;100.00;96780.75;18503676;32;20090;-63
2022/11/04 12:56:17;;;;;;;1.98;0.95;;;;;;;11.64;100.00;96782.75;18352248;32;20058;-63
2022/11/04 13:06:29;;;;;;;2.25;0.95;;;;;;;11.67;100.00;96782.94;18364272;32;20356;-65
2022/11/04 13:16:39;;;;;;;1.55;0.65;;;;;;;11.82;100.00;96789.97;18364259;32;20078;-62
2022/11/04 13:26:43;;;;;;;1.27;0.30;;;;;;;12.00;100.00;96791.06;18477671;32;20364;-62
2022/11/04 13:37:10;;;;;;;;;;;;;;;11.30;89.63;96819.84;18500633;32;20110;-62
2022/11/04 13:47:28;;;;;;;1.12;0.20;;;;;;;10.58;98.24;96825.50;18500454;32;19952;-62
2022/11/04 13:57:56;;;;;;;1.48;0.57;;;;;;;10.77;100.00;96826.34;18531919;32;20475;-65
2022/11/04 14:08:02;;;;;;;0.95;0.20;;;;;;;11.14;100.00;96840.94;18549787;32;20071;-62
2022/11/04 14:18:26;;;;;;;0.57;0.20;;;;;;;11.15;100.00;96850.66;18548736;32;20080;-65
2022/11/04 14:28:31;;;;;;;0.50;0.20;;;;;;;11.07;100.00;96859.44;18562555;32;20075;-62
2022/11/04 14:38:34;;;;;;;;;;;;;;;11.05;100.00;96871.66;18562213;32;20103;-63
2022/11/04 14:48:50;;;;;;;1.73;0.50;;;;;;;11.06;100.00;96882.19;18561134;32;19991;-62
2022/11/04 14:59:04;;;;;;;0.60;0.32;;;;;;;11.00;100.00;96905.00;18560876;31;20185;-62
2022/11/04 15:09:22;;;;;;;1.12;0.50;;;;;;;10.80;100.00;96906.87;18560403;32;20104;-62
2022/11/04 15:19:33;;;;;;;0.55;0.30;;;;;;;10.59;100.00;96921.72;18560218;32;20052;-63
2022/11/04 15:29:36;;;;;;;1.40;0.50;;;;;;;10.36;100.00;96929.56;18559716;32;20113;-62
2022/11/04 15:39:43;;;;;;;2.20;0.50;;;;;;;10.09;100.00;96933.56;18559582;32;20105;-62
2022/11/04 15:49:48;;;;;;;1.73;0.93;;;;;;;9.88;100.00;96943.75;18545006;32;20113;-62
2022/11/04 16:00:20;;;;;;;1.30;0.80;;;;;;;9.65;100.00;96964.19;18564215;32;20036;-62
2022/11/04 16:10:31;;;;;;;1.73;0.60;;;;;;;9.46;100.00;96982.94;18571084;32;20075;-62
2022/11/04 16:20:34;;;;;;;1.23;0.60;;;;;;;9.35;100.00;97003.78;18563729;32;20202;-62
2022/11/04 16:30:37;;;;;;;1.53;0.70;;;;;;;9.28;100.00;97014.06;18555463;32;20486;-62
2022/11/04 16:40:45;;;;;;;1.13;0.40;;;;;;;9.20;100.00;97028.94;18569313;32;20357;-63
2022/11/04 16:50:48;;;;;;;0.93;0.40;;;;;;;9.04;100.00;97036.28;18568685;32;20093;-62
2022/11/04 17:00:51;;;;;;;1.07;0.50;;;;;;;8.85;100.00;97040.66;18489126;32;20101;-62
2022/11/04 17:10:56;;;;;;;0.77;0.30;;;;;;;8.66;100.00;97068.22;18501992;32;20073;-62
2022/11/04 17:21:05;;;;;;;0.50;0.30;;;;;;;8.42;100.00;97092.97;18501860;32;20124;-62
2022/11/04 17:31:14;;;;;;;0.30;0.20;;;;;;;8.03;100.00;97106.16;18427154;32;20136;-62
2022/11/04 17:51:41;;;;;;;0.87;0.30;;;;;;;7.58;100.00;97146.94;18234924;32;20061;-63
2022/11/04 18:01:45;;;;;;;0.50;0.20;;;;;;;7.69;100.00;97163.94;18340504;32;20082;-62
2022/11/04 18:22:09;;;;;;;2.83;0.27;;;;;;;7.69;100.00;97204.31;18454583;32;20421;-62
2022/11/04 18:32:12;;;;;;;1.33;0.40;;;;;;;7.68;100.00;97216.12;18423246;32;20053;-65
2022/11/04 18:42:14;;;;;;;0.70;0.40;;;;;;;7.64;100.00;97241.94;18423301;32;20069;-65
2022/11/04 18:52:17;;;;;;;1.40;0.60;;;;;;;7.61;100.00;97247.88;18473310;32;20083;-65
2022/11/04 19:02:22;;;;;;;1.13;0.53;;;;;;;7.56;100.00;97266.66;18487771;32;20111;-65
2022/11/04 19:22:46;;;;;;;1.70;0.97;;;;;;;7.52;100.00;97295.94;18421673;32;20065;-65
2022/11/04 19:32:49;;;;;;;2.30;0.70;;;;;;;7.51;100.00;97317.75;18424015;32;20061;-64
2022/11/04 19:43:10;;;;;;;1.00;0.60;;;;;;;7.51;100.00;97328.50;18447406;32;20041;-62
2022/11/04 19:53:15;;;;;;;1.00;0.50;;;;;;;7.51;100.00;97344.62;18511566;32;20049;-65
2022/11/04 20:03:17;;;;;;;1.30;0.70;;;;;;;7.48;100.00;97335.19;18571316;32;20098;-65
2022/11/04 20:23:42;;;;;;;1.57;0.60;;;;;;;7.15;100.00;97363.19;18570467;32;20109;-64
2022/11/04 20:33:47;;;;;;;1.20;0.47;;;;;;;7.05;100.00;97370.09;18430802;32;20444;-64
2022/11/04 20:43:50;;;;;;;0.55;0.30;;;;;;;6.96;100.00;97385.03;18429334;32;20093;-64
2022/11/04 20:53:55;;;;;;;0.35;0.30;;;;;;;6.96;100.00;97409.22;18429283;32;20077;-64
2022/11/04 21:04:04;;;;;;;0.67;0.30;;;;;;;6.99;100.00;97427.56;18487949;32;20437;-64
2022/11/04 21:14:10;;;;;;;0.93;0.30;;;;;;;7.05;100.00;97445.34;18502563;32;20123;-67
2022/11/04 21:24:14;;;;;;;0.27;0.10;;;;;;;7.06;100.00;97457.75;18427836;32;20093;-65
2022/11/04 21:34:18;;;;;;;0.30;0.20;;;;;;;7.11;100.00;97455.13;18414760;32;20087;-65
2022/11/04 21:44:20;;;;;;;0.27;0.10;;;;;;;7.09;100.00;97473.34;18426522;32;20076;-65
2022/11/04 21:54:28;;;;;;;0.77;0.30;;;;;;;7.11;100.00;97479.31;18436447;32;20399;-65
2022/11/04 22:04:43;;;;;;;1.02;0.30;;;;;;;7.16;100.00;97501.94;18499054;32;20075;-65
2022/11/04 22:14:50;;;;;;;0.77;0.33;;;;;;;7.25;100.00;97508.47;18498507;32;20106;-65
2022/11/04 22:25:02;;;;;;;0.50;0.30;;;;;;;7.31;100.00;97517.44;18498412;32;20490;-65
2022/11/04 22:35:05;;;;;;;0.40;0.20;;;;;;;7.33;100.00;97516.13;18497683;32;20057;-65
2022/11/04 22:45:08;;;;;;;1.00;0.30;;;;;;;7.39;100.00;97535.81;18496915;32;20100;-65
2022/11/04 22:55:17;;;;;;;0.70;0.47;;;;;;;7.42;100.00;97538.78;18515465;32;20475;-65
2022/11/04 23:05:20;;;;;;;0.90;0.37;;;;;;;7.43;100.00;97547.69;18560958;32;20052;-65
2022/11/04 23:25:44;;;;;;;1.00;0.43;;;;;;;7.44;100.00;97560.91;18560537;32;20475;-64
